Time;durP1;ratioP1;P1;durP2;ratioP2;P2;SDS_P1;SDS_P2;PMS_P1;PMS_P2;Temp;Humidity;BMP_temperature;BMP_pressure;BME280_temperature;BME280_humidity;BME280_pressure;Samples;Min_cycle;Max_cycle;Signal;HPM_P1;HPM_P2
2022/11/15 00:00:51;;;;;;;85.10;46.53;;;9.30;87.70;;;;;;5014951;28;20431;-64
2022/11/15 00:03:19;;;;;;;97.50;46.03;;;9.30;87.60;;;;;;5030601;28;21054;-64
2022/11/15 00:05:44;;;;;;;95.17;47.27;;;9.30;87.70;;;;;;5016523;28;20431;-64
2022/11/15 00:08:10;;;;;;;94.50;45.43;;;9.30;87.80;;;;;;5030571;28;20431;-64
2022/11/15 00:10:36;;;;;;;89.40;47.47;;;9.20;87.90;;;;;;5032284;28;20187;-64
2022/11/15 00:13:12;;;;;;;96.53;45.07;;;9.20;88.00;;;;;;5014633;28;20719;-64
2022/11/15 00:15:40;;;;;;;94.23;47.80;;;9.20;88.10;;;;;;5015062;28;20683;-64
2022/11/15 00:18:11;;;;;;;88.00;46.87;;;9.20;88.00;;;;;;5014054;28;20183;-63
2022/11/15 00:20:37;;;;;;;86.87;45.40;;;9.20;88.20;;;;;;5014605;28;20434;-64
2022/11/15 00:23:06;;;;;;;90.70;45.40;;;9.10;88.20;;;;;;4999517;28;20466;-64
2022/11/15 00:25:32;;;;;;;93.27;46.40;;;9.10;88.20;;;;;;5015688;28;20183;-64
2022/11/15 00:27:59;;;;;;;86.83;43.93;;;9.10;88.30;;;;;;5014387;28;20426;-64
2022/11/15 00:30:25;;;;;;;89.30;43.40;;;9.10;88.30;;;;;;5030989;28;20430;-64
2022/11/15 00:32:51;;;;;;;90.40;44.87;;;9.10;88.30;;;;;;4996142;28;20464;-64
2022/11/15 00:35:17;;;;;;;93.67;46.57;;;9.10;88.20;;;;;;5008419;28;20493;-63
2022/11/15 00:37:43;;;;;;;99.53;46.87;;;9.00;88.20;;;;;;5011758;28;20198;-64
2022/11/15 00:40:09;;;;;;;91.43;46.90;;;9.00;88.60;;;;;;5014245;28;20435;-64
2022/11/15 00:42:35;;;;;;;79.73;42.23;;;9.00;88.70;;;;;;4996717;28;20683;-64
2022/11/15 00:45:01;;;;;;;80.67;42.80;;;9.00;88.60;;;;;;5014155;28;20505;-64
2022/11/15 00:47:27;;;;;;;83.20;43.27;;;9.00;88.60;;;;;;5002051;28;20191;-64
2022/11/15 00:49:53;;;;;;;78.70;39.43;;;9.00;88.60;;;;;;5013479;28;20466;-64
2022/11/15 00:52:18;;;;;;;71.80;38.90;;;9.00;88.60;;;;;;5013837;28;20192;-62
2022/11/15 00:54:44;;;;;;;66.33;36.77;;;9.00;88.50;;;;;;5032646;28;20185;-63
2022/11/15 00:57:10;;;;;;;79.07;42.63;;;9.10;88.50;;;;;;4997882;28;20244;-63
2022/11/15 00:59:35;;;;;;;82.67;41.20;;;9.10;88.50;;;;;;5013408;28;20192;-63
2022/11/15 01:02:01;;;;;;;70.80;39.17;;;9.10;88.40;;;;;;5013713;28;20208;-63
2022/11/15 01:04:27;;;;;;;75.73;38.50;;;9.00;88.40;;;;;;5013396;28;20187;-63
2022/11/15 01:06:53;;;;;;;75.70;38.73;;;9.10;88.30;;;;;;5010432;28;20189;-64
2022/11/15 01:09:18;;;;;;;75.17;39.20;;;9.10;88.30;;;;;;5014071;28;20191;-64
2022/11/15 01:11:44;;;;;;;81.53;40.57;;;9.10;88.20;;;;;;5013272;28;20685;-63
2022/11/15 01:14:10;;;;;;;69.00;36.40;;;9.10;88.20;;;;;;4997025;28;20219;-63
2022/11/15 01:16:36;;;;;;;72.37;39.00;;;9.10;88.20;;;;;;5004227;28;20191;-64
2022/11/15 01:19:03;;;;;;;66.97;35.27;;;9.10;88.10;;;;;;5029307;28;20246;-63
2022/11/15 01:21:28;;;;;;;65.23;37.47;;;9.10;88.20;;;;;;5014266;28;20215;-64
2022/11/15 01:23:57;;;;;;;68.50;37.33;;;9.10;88.20;;;;;;5013487;28;20517;-64
2022/11/15 01:26:24;;;;;;;81.77;38.83;;;9.10;88.10;;;;;;5013482;28;20195;-63
2022/11/15 01:28:50;;;;;;;80.47;38.90;;;9.20;88.10;;;;;;5013474;28;20425;-63
2022/11/15 01:31:18;;;;;;;75.33;36.63;;;9.20;88.10;;;;;;5013224;28;20430;-63
2022/11/15 01:33:44;;;;;;;66.43;37.77;;;9.20;88.10;;;;;;5014389;28;20438;-63
2022/11/15 01:36:21;;;;;;;68.10;36.23;;;9.20;88.10;;;;;;5029838;28;20577;-63
2022/11/15 01:38:52;;;;;;;74.20;36.90;;;9.20;88.10;;;;;;5013213;28;20434;-63
2022/11/15 01:41:20;;;;;;;68.10;36.90;;;9.20;88.10;;;;;;5029658;28;20442;-63
2022/11/15 01:43:49;;;;;;;72.43;37.10;;;9.20;88.10;;;;;;5029243;28;20425;-63
2022/11/15 01:46:32;;;;;;;93.50;44.90;;;9.20;88.10;;;;;;5012786;28;20418;-63
2022/11/15 01:49:02;;;;;;;75.50;41.00;;;9.10;88.10;;;;;;5020369;28;20423;-63
2022/11/15 01:51:31;;;;;;;90.17;46.13;;;9.10;88.20;;;;;;5012870;28;20577;-63
2022/11/15 01:54:02;;;;;;;98.07;47.17;;;9.10;88.20;;;;;;5030092;28;20426;-63
2022/11/15 01:56:31;;;;;;;79.00;42.30;;;9.00;88.70;;;;;;5010321;28;20445;-63
2022/11/15 01:58:59;;;;;;;86.70;42.37;;;8.90;88.80;;;;;;5029805;28;20418;-63
2022/11/15 02:01:26;;;;;;;91.73;45.27;;;8.90;89.00;;;;;;5001580;28;20477;-63
2022/11/15 02:03:58;;;;;;;89.47;44.90;;;8.80;89.10;;;;;;5028689;28;20481;-64
2022/11/15 02:06:24;;;;;;;84.60;42.53;;;8.90;89.00;;;;;;5015984;28;20445;-64
2022/11/15 02:08:50;;;;;;;79.17;39.07;;;8.90;89.00;;;;;;5003077;28;20439;-64
2022/11/15 02:11:16;;;;;;;78.23;41.63;;;8.90;88.90;;;;;;5016488;28;20191;-63
2022/11/15 02:13:43;;;;;;;65.00;37.67;;;9.00;88.90;;;;;;5028022;28;20435;-64
2022/11/15 02:16:25;;;;;;;71.37;38.60;;;9.00;88.80;;;;;;5004162;28;20196;-63
2022/11/15 02:19:30;;;;;;;77.07;40.13;;;9.00;88.70;;;;;;5007069;28;20493;-63
2022/11/15 02:22:13;;;;;;;66.50;36.43;;;9.00;88.60;;;;;;5031187;28;20501;-63
2022/11/15 02:25:02;;;;;;;70.93;38.87;;;9.10;88.60;;;;;;5029745;28;20430;-63
2022/11/15 02:27:39;;;;;;;57.47;31.90;;;9.10;88.50;;;;;;5015610;28;20434;-63
2022/11/15 02:30:19;;;;;;;64.90;34.27;;;9.10;88.40;;;;;;5012890;28;20438;-63
2022/11/15 02:32:53;;;;;;;58.83;31.97;;;9.10;88.30;;;;;;5032656;28;20948;-63
2022/11/15 02:35:31;;;;;;;66.07;36.27;;;9.10;88.30;;;;;;5030646;28;20444;-63
2022/11/15 02:38:04;;;;;;;82.07;42.07;;;9.10;88.30;;;;;;5017099;28;20422;-63
2022/11/15 02:40:52;;;;;;;79.37;41.30;;;9.10;88.10;;;;;;5017392;28;20461;-63
2022/11/15 02:49:24;;;;;;;63.60;35.50;;;9.00;88.50;;;;;;5017213;28;20433;-64
2022/11/15 02:51:51;;;;;;;65.33;36.87;;;8.90;88.50;;;;;;5030972;28;20438;-63
2022/11/15 02:54:23;;;;;;;70.53;37.37;;;9.00;88.40;;;;;;5016780;28;20438;-63
2022/11/15 02:56:52;;;;;;;71.50;39.77;;;9.00;88.40;;;;;;5016393;28;20465;-63
2022/11/15 02:59:37;;;;;;;62.83;34.63;;;9.00;88.40;;;;;;5016784;28;20459;-63
2022/11/15 03:02:20;;;;;;;65.37;37.13;;;9.00;88.40;;;;;;5031397;28;20458;-64
2022/11/15 03:04:54;;;;;;;63.33;35.90;;;9.00;88.40;;;;;;5028633;28;20508;-64
2022/11/15 03:07:29;;;;;;;67.13;36.67;;;9.00;88.40;;;;;;5006730;28;20621;-64
2022/11/15 03:10:06;;;;;;;67.77;38.27;;;9.00;88.40;;;;;;5015016;28;20505;-64
2022/11/15 03:13:07;;;;;;;60.33;34.37;;;8.90;88.50;;;;;;5016837;28;20948;-64
2022/11/15 03:15:41;;;;;;;61.30;33.10;;;9.00;88.50;;;;;;5031831;28;20444;-64
2022/11/15 03:18:19;;;;;;;57.50;31.87;;;9.00;88.50;;;;;;5014738;28;20808;-63
2022/11/15 03:20:46;;;;;;;68.17;35.67;;;9.00;88.40;;;;;;5014858;28;20450;-64
2022/11/15 03:23:13;;;;;;;66.60;35.10;;;9.00;88.40;;;;;;4999158;28;20485;-63
2022/11/15 03:25:43;;;;;;;69.97;36.33;;;9.00;88.40;;;;;;5015410;28;20422;-63
2022/11/15 03:28:12;;;;;;;67.60;37.87;;;9.00;88.30;;;;;;5013851;28;20424;-63
2022/11/15 03:30:39;;;;;;;73.47;38.73;;;9.00;88.30;;;;;;5016339;28;20426;-64
2022/11/15 03:33:06;;;;;;;67.67;37.13;;;9.00;88.30;;;;;;5042400;28;20488;-63
2022/11/15 03:35:38;;;;;;;62.47;34.40;;;9.00;88.30;;;;;;5003669;28;20434;-63
2022/11/15 03:38:11;;;;;;;74.57;37.40;;;9.00;88.30;;;;;;5016431;28;20442;-63
2022/11/15 03:40:39;;;;;;;61.80;33.10;;;9.00;88.30;;;;;;5013563;28;20445;-64
2022/11/15 03:43:39;;;;;;;73.53;37.77;;;9.00;88.30;;;;;;5014859;28;20474;-63
2022/11/15 03:46:13;;;;;;;62.60;35.37;;;9.00;88.30;;;;;;5007708;28;20515;-63
2022/11/15 03:48:53;;;;;;;70.27;36.70;;;9.00;88.40;;;;;;5017793;28;20454;-63
2022/11/15 03:51:19;;;;;;;67.07;36.30;;;9.00;88.30;;;;;;5014983;28;20508;-63
2022/11/15 03:53:46;;;;;;;69.03;36.13;;;9.00;88.30;;;;;;5015284;28;20480;-63
2022/11/15 03:56:11;;;;;;;66.80;34.77;;;8.90;88.30;;;;;;5014853;28;21032;-63
2022/11/15 03:58:37;;;;;;;70.10;39.13;;;8.90;88.40;;;;;;5013489;28;20446;-63
2022/11/15 04:01:03;;;;;;;66.47;35.07;;;8.90;88.40;;;;;;5015961;28;20196;-63
2022/11/15 04:03:28;;;;;;;73.60;37.80;;;8.90;88.50;;;;;;5014629;28;20257;-63
2022/11/15 04:05:54;;;;;;;62.30;34.07;;;8.90;88.50;;;;;;5014766;28;20191;-63
2022/11/15 04:08:20;;;;;;;70.73;36.60;;;8.90;88.50;;;;;;5001571;28;20192;-63
2022/11/15 04:10:48;;;;;;;64.57;35.47;;;8.90;88.50;;;;;;5015347;28;20195;-63
2022/11/15 04:13:13;;;;;;;59.30;32.03;;;8.80;88.50;;;;;;5014164;28;20184;-63
2022/11/15 04:15:39;;;;;;;56.63;32.17;;;8.80;88.60;;;;;;4986442;28;20458;-63
2022/11/15 04:18:05;;;;;;;61.33;33.83;;;8.90;88.60;;;;;;5014074;28;20237;-63
2022/11/15 04:26:07;;;;;;;52.40;30.23;;;8.80;88.50;;;;;;5014950;28;20432;-63
2022/11/15 04:28:33;;;;;;;57.33;31.60;;;8.80;88.50;;;;;;5014324;28;20430;-63
2022/11/15 04:30:58;;;;;;;55.77;30.43;;;8.80;88.50;;;;;;5030844;28;20437;-63
2022/11/15 04:33:24;;;;;;;61.40;33.63;;;8.80;88.50;;;;;;5014311;28;20191;-63
2022/11/15 04:38:36;;;;;;;58.73;34.03;;;8.80;88.50;;;;;;5003947;28;20214;-64
2022/11/15 04:41:02;;;;;;;56.47;32.13;;;8.80;88.50;;;;;;5022798;28;21001;-63
2022/11/15 04:43:29;;;;;;;53.77;29.20;;;8.90;88.50;;;;;;5012791;28;20549;-64
2022/11/15 04:45:54;;;;;;;49.23;28.87;;;8.80;88.50;;;;;;5014360;28;20242;-64
2022/11/15 04:48:20;;;;;;;55.07;30.87;;;8.90;88.50;;;;;;5013166;28;20851;-64
2022/11/15 04:50:48;;;;;;;53.57;31.50;;;8.80;88.50;;;;;;5013913;28;20262;-64
2022/11/15 04:53:13;;;;;;;54.80;30.37;;;8.80;88.50;;;;;;5013581;28;20191;-64
2022/11/15 04:55:39;;;;;;;51.23;30.90;;;8.80;88.50;;;;;;5019235;28;20481;-63
2022/11/15 04:58:05;;;;;;;54.63;30.53;;;8.80;88.50;;;;;;5013676;28;20191;-65
2022/11/15 05:00:30;;;;;;;50.67;30.80;;;8.80;88.50;;;;;;5013730;28;20192;-64
2022/11/15 05:05:41;;;;;;;56.93;32.43;;;8.80;88.50;;;;;;5013410;28;20238;-64
2022/11/15 05:08:07;;;;;;;57.80;32.60;;;8.80;88.40;;;;;;4996941;28;20435;-64
2022/11/15 05:10:33;;;;;;;51.47;30.67;;;8.70;88.60;;;;;;5012738;28;20489;-64
2022/11/15 05:12:58;;;;;;;56.43;31.57;;;8.70;88.70;;;;;;4999429;28;20183;-64
2022/11/15 05:15:24;;;;;;;49.63;28.97;;;8.70;88.70;;;;;;4997074;28;20257;-64
2022/11/15 05:17:50;;;;;;;46.67;27.93;;;8.70;88.70;;;;;;4997380;28;20184;-63
2022/11/15 05:20:15;;;;;;;53.13;29.97;;;8.70;88.60;;;;;;5003078;28;20200;-63
2022/11/15 05:22:41;;;;;;;56.50;31.20;;;8.70;88.60;;;;;;4993712;28;20232;-63
2022/11/15 05:25:07;;;;;;;51.17;30.17;;;8.70;88.60;;;;;;4992537;28;20278;-63
2022/11/15 05:27:34;;;;;;;51.80;29.00;;;8.70;88.60;;;;;;5029370;28;20206;-64
2022/11/15 05:29:59;;;;;;;49.70;29.03;;;8.80;88.60;;;;;;5034958;28;20470;-64
2022/11/15 05:32:26;;;;;;;38.50;24.37;;;8.70;88.60;;;;;;5010071;28;20458;-65
2022/11/15 05:34:52;;;;;;;57.43;31.97;;;8.80;88.60;;;;;;5029530;28;20195;-65
2022/11/15 05:37:18;;;;;;;50.03;30.60;;;8.80;88.60;;;;;;4996151;28;20434;-65
2022/11/15 05:39:43;;;;;;;51.43;30.83;;;8.80;88.60;;;;;;5029047;28;20224;-65
2022/11/15 05:42:16;;;;;;;52.43;30.20;;;8.80;88.50;;;;;;4996735;28;20263;-65
2022/11/15 05:44:47;;;;;;;46.20;28.07;;;8.80;88.50;;;;;;5023687;28;20239;-65
2022/11/15 05:47:18;;;;;;;44.97;28.90;;;8.80;88.50;;;;;;5029286;28;20442;-65
2022/11/15 05:49:45;;;;;;;48.43;27.90;;;8.80;88.40;;;;;;5011402;28;20425;-64
2022/11/15 05:52:16;;;;;;;44.83;27.27;;;8.90;88.30;;;;;;5011884;28;20525;-64
2022/11/15 05:54:42;;;;;;;47.90;27.80;;;8.90;88.30;;;;;;5028919;28;20439;-65
2022/11/15 05:57:08;;;;;;;54.23;30.07;;;8.90;88.20;;;;;;4998940;28;20434;-65
2022/11/15 05:59:35;;;;;;;42.37;24.63;;;8.90;88.10;;;;;;5012977;28;20433;-64
2022/11/15 06:02:00;;;;;;;37.13;24.67;;;8.90;88.10;;;;;;5012923;28;20211;-64
2022/11/15 06:04:26;;;;;;;44.40;26.80;;;9.00;88.10;;;;;;4995068;28;20419;-64
2022/11/15 06:06:52;;;;;;;39.13;24.10;;;9.00;88.00;;;;;;5011626;28;20180;-65
2022/11/15 06:09:17;;;;;;;50.93;29.93;;;9.00;88.00;;;;;;5029206;28;20211;-64
2022/11/15 06:11:43;;;;;;;41.63;25.87;;;9.00;87.90;;;;;;4997382;28;20184;-64
2022/11/15 06:14:09;;;;;;;50.23;28.80;;;9.00;88.00;;;;;;4996321;28;20207;-64
2022/11/15 06:16:34;;;;;;;48.73;30.83;;;9.00;87.90;;;;;;5012358;28;20282;-66
2022/11/15 06:19:00;;;;;;;54.03;30.23;;;9.00;87.80;;;;;;4996095;28;20270;-66
2022/11/15 06:21:27;;;;;;;47.77;26.80;;;8.90;87.80;;;;;;5018653;28;20266;-66
2022/11/15 06:23:53;;;;;;;50.47;30.60;;;9.00;87.90;;;;;;5003746;28;20181;-64
2022/11/15 06:26:19;;;;;;;55.40;29.73;;;8.90;87.80;;;;;;5028897;28;20442;-64
2022/11/15 06:28:45;;;;;;;46.57;28.97;;;8.90;87.90;;;;;;5025612;28;20188;-65
2022/11/15 06:31:11;;;;;;;50.30;29.77;;;8.90;87.90;;;;;;4991279;28;20216;-64
2022/11/15 06:33:40;;;;;;;47.87;28.10;;;8.90;87.80;;;;;;5006721;28;20219;-64
2022/11/15 06:36:09;;;;;;;48.83;27.60;;;8.90;87.80;;;;;;5007812;28;20451;-65
2022/11/15 06:38:35;;;;;;;41.20;25.73;;;8.90;87.80;;;;;;5011415;28;20438;-64
2022/11/15 06:41:02;;;;;;;52.03;28.37;;;8.90;87.80;;;;;;5012479;28;20508;-65
2022/11/15 06:43:28;;;;;;;53.43;30.93;;;8.90;87.70;;;;;;5011463;28;20473;-64
2022/11/15 06:45:54;;;;;;;48.03;27.07;;;8.90;87.70;;;;;;4993272;28;20886;-64
2022/11/15 06:48:19;;;;;;;46.37;27.57;;;8.90;87.80;;;;;;5035016;28;20188;-65
2022/11/15 06:50:54;;;;;;;40.67;25.23;;;9.00;87.70;;;;;;4998275;28;20180;-64
2022/11/15 06:53:20;;;;;;;43.73;27.13;;;9.00;87.70;;;;;;5029236;28;20652;-64
2022/11/15 06:55:46;;;;;;;48.30;27.23;;;9.00;87.60;;;;;;5014338;28;20477;-64
2022/11/15 06:58:11;;;;;;;44.03;26.33;;;9.00;87.50;;;;;;5000520;28;20226;-64
2022/11/15 07:00:37;;;;;;;40.50;26.50;;;9.10;87.50;;;;;;5012536;28;20240;-64
2022/11/15 07:03:03;;;;;;;42.80;26.23;;;9.10;87.50;;;;;;5015093;28;20312;-64
2022/11/15 07:05:29;;;;;;;63.70;33.73;;;9.10;87.30;;;;;;5013009;28;20222;-64
2022/11/15 07:07:57;;;;;;;69.37;35.17;;;9.10;87.30;;;;;;5012335;28;20192;-64
2022/11/15 07:10:24;;;;;;;83.87;38.33;;;9.10;87.60;;;;;;5012466;28;20434;-64
2022/11/15 07:12:54;;;;;;;106.20;40.27;;;9.00;87.90;;;;;;4994424;28;20463;-64
2022/11/15 07:15:24;;;;;;;90.73;39.77;;;8.90;88.40;;;;;;5014054;28;20532;-64
2022/11/15 07:17:50;;;;;;;81.60;37.27;;;8.80;89.20;;;;;;5014180;28;20446;-64
2022/11/15 07:20:16;;;;;;;97.60;41.13;;;8.80;89.30;;;;;;5022519;28;20430;-64
2022/11/15 07:22:45;;;;;;;86.17;36.40;;;8.80;89.40;;;;;;5028977;28;20222;-64
2022/11/15 07:25:11;;;;;;;71.20;35.40;;;8.80;89.40;;;;;;5041485;28;20461;-64
2022/11/15 07:27:37;;;;;;;60.57;31.27;;;8.80;89.30;;;;;;5030202;28;20443;-64
2022/11/15 07:30:04;;;;;;;53.73;28.43;;;8.80;89.30;;;;;;5003384;28;20431;-65
2022/11/15 07:32:29;;;;;;;53.07;29.27;;;8.90;89.30;;;;;;5033803;28;20949;-64
2022/11/15 07:34:55;;;;;;;49.87;27.57;;;8.90;89.30;;;;;;4995164;28;20423;-64
2022/11/15 07:37:21;;;;;;;52.73;28.13;;;8.90;89.30;;;;;;5037222;28;20196;-64
2022/11/15 07:39:46;;;;;;;47.53;27.37;;;8.90;89.30;;;;;;5005683;28;20192;-65
2022/11/15 07:42:57;;;;;;;57.10;28.57;;;8.90;89.30;;;;;;5013579;28;20728;-64
2022/11/15 07:44:58;;;;;;;45.57;27.47;;;8.90;89.20;;;;;;4999775;28;20654;-64
2022/11/15 07:47:23;;;;;;;48.83;26.97;;;9.00;89.10;;;;;;5016173;28;20446;-64
2022/11/15 07:49:50;;;;;;;34.23;21.30;;;9.00;89.00;;;;;;4995565;28;20671;-64
2022/11/15 07:52:15;;;;;;;39.43;22.60;;;9.00;89.00;;;;;;4996265;28;20202;-64
2022/11/15 07:54:41;;;;;;;43.10;26.67;;;9.00;88.90;;;;;;4995352;28;20459;-65
2022/11/15 07:57:08;;;;;;;37.93;23.57;;;9.10;88.80;;;;;;4995713;28;20315;-64
2022/11/15 07:59:34;;;;;;;37.07;23.80;;;9.10;88.60;;;;;;5011485;28;20227;-65
2022/11/15 08:02:00;;;;;;;47.30;26.70;;;9.10;88.60;;;;;;5011802;28;20497;-64
2022/11/15 08:04:26;;;;;;;43.73;24.23;;;9.20;88.50;;;;;;5003222;28;20680;-64
2022/11/15 08:06:52;;;;;;;49.07;26.90;;;9.20;88.30;;;;;;5005826;28;20187;-64
2022/11/15 08:09:17;;;;;;;52.00;28.20;;;9.30;88.10;;;;;;4994924;28;20263;-64
2022/11/15 08:11:43;;;;;;;60.27;28.00;;;9.30;88.00;;;;;;4997852;28;20203;-65
2022/11/15 08:14:08;;;;;;;51.97;27.60;;;9.30;87.80;;;;;;5011969;28;20188;-65
2022/11/15 08:16:34;;;;;;;49.63;27.17;;;9.30;87.60;;;;;;4996737;28;20184;-65
2022/11/15 08:19:00;;;;;;;49.73;28.40;;;9.30;87.60;;;;;;4995954;28;20235;-65
2022/11/15 08:21:25;;;;;;;46.97;26.10;;;9.30;87.30;;;;;;4989887;28;20207;-65
2022/11/15 08:23:51;;;;;;;44.43;26.13;;;9.30;87.30;;;;;;5013596;28;20219;-65
2022/11/15 08:26:17;;;;;;;38.33;24.40;;;9.40;87.30;;;;;;5011576;28;20200;-65
2022/11/15 08:28:43;;;;;;;37.33;23.87;;;9.30;87.00;;;;;;4995182;28;20295;-65
2022/11/15 08:31:17;;;;;;;47.10;25.33;;;9.40;87.00;;;;;;5012292;28;20188;-65
2022/11/15 08:33:43;;;;;;;41.43;24.60;;;9.40;86.50;;;;;;5029849;28;20211;-65
2022/11/15 08:36:14;;;;;;;42.10;23.80;;;9.30;86.40;;;;;;5025449;28;20438;-65
2022/11/15 08:38:40;;;;;;;38.37;22.30;;;9.40;86.20;;;;;;5001755;28;20434;-65
2022/11/15 08:41:06;;;;;;;41.43;23.33;;;9.40;86.20;;;;;;5028761;28;21244;-65
2022/11/15 08:43:32;;;;;;;34.80;22.87;;;9.50;85.50;;;;;;5012936;28;20279;-64
2022/11/15 08:45:58;;;;;;;33.10;20.97;;;9.50;85.80;;;;;;5000062;28;20206;-64
2022/11/15 08:48:23;;;;;;;31.30;20.63;;;9.60;85.90;;;;;;5010698;28;20214;-64
2022/11/15 08:50:53;;;;;;;32.00;19.97;;;9.80;85.50;;;;;;5011740;28;20434;-64
2022/11/15 08:53:18;;;;;;;29.73;19.83;;;9.80;85.30;;;;;;5027402;28;20192;-64
2022/11/15 08:55:44;;;;;;;31.33;20.87;;;9.90;85.10;;;;;;5020838;28;20242;-64
2022/11/15 08:58:09;;;;;;;33.10;19.70;;;10.00;84.90;;;;;;5010642;28;20207;-64
2022/11/15 09:00:35;;;;;;;27.93;20.00;;;10.10;84.50;;;;;;5013561;28;20199;-64
2022/11/15 09:03:05;;;;;;;32.03;21.10;;;10.20;84.40;;;;;;4986380;28;20269;-64
2022/11/15 09:05:31;;;;;;;31.10;19.87;;;10.30;83.90;;;;;;5012624;28;20650;-64
2022/11/15 09:07:56;;;;;;;32.23;19.67;;;10.30;83.50;;;;;;5012636;28;20190;-64
2022/11/15 09:10:22;;;;;;;25.87;16.93;;;10.40;83.10;;;;;;5033309;28;20198;-64
2022/11/15 09:12:48;;;;;;;29.60;19.60;;;10.40;82.90;;;;;;5011917;28;20287;-64
2022/11/15 09:15:15;;;;;;;29.10;18.73;;;10.50;82.20;;;;;;5010682;28;20282;-64
2022/11/15 09:17:41;;;;;;;25.70;17.80;;;10.50;81.80;;;;;;5027838;28;20188;-64
2022/11/15 09:20:08;;;;;;;26.80;18.70;;;10.50;81.40;;;;;;4998771;28;20315;-64
2022/11/15 09:22:34;;;;;;;30.27;19.90;;;10.50;81.40;;;;;;5011619;28;20217;-64
2022/11/15 09:25:00;;;;;;;25.80;17.80;;;10.40;81.10;;;;;;5036673;28;20282;-64
2022/11/15 09:27:32;;;;;;;30.80;19.87;;;10.50;81.20;;;;;;5011536;28;20303;-65
2022/11/15 09:29:57;;;;;;;31.13;20.63;;;10.50;80.80;;;;;;5012611;28;20645;-64
2022/11/15 09:32:23;;;;;;;29.73;19.93;;;10.40;81.00;;;;;;4995162;28;20195;-65
2022/11/15 09:34:52;;;;;;;38.07;22.20;;;10.50;81.40;;;;;;5033075;28;20286;-63
2022/11/15 09:37:17;;;;;;;37.27;23.20;;;10.50;81.60;;;;;;4992723;28;20254;-65
2022/11/15 09:39:43;;;;;;;38.93;23.93;;;10.30;81.90;;;;;;4995279;28;20195;-64
2022/11/15 09:42:25;;;;;;;38.47;24.97;;;10.30;82.40;;;;;;4993789;28;20270;-65
2022/11/15 09:45:04;;;;;;;37.73;24.50;;;10.30;82.40;;;;;;5041547;28;20203;-65
2022/11/15 09:47:32;;;;;;;40.07;23.83;;;10.30;82.50;;;;;;5027260;28;20268;-64
2022/11/15 09:50:00;;;;;;;34.77;21.47;;;10.30;82.70;;;;;;5011701;28;20219;-64
2022/11/15 09:52:27;;;;;;;34.13;22.47;;;10.40;82.60;;;;;;5011098;28;20699;-65
2022/11/15 09:54:54;;;;;;;39.77;23.77;;;10.50;82.40;;;;;;5036799;28;20200;-64
2022/11/15 09:57:34;;;;;;;36.83;23.13;;;10.60;82.30;;;;;;5003473;28;20208;-64
2022/11/15 10:00:11;;;;;;;38.60;25.00;;;10.60;82.20;;;;;;5010022;28;20282;-65
2022/11/15 10:02:47;;;;;;;43.77;25.73;;;10.70;82.10;;;;;;5028480;28;20697;-64
2022/11/15 10:05:20;;;;;;;38.63;24.60;;;10.60;81.70;;;;;;5011044;28;20187;-64
2022/11/15 10:08:05;;;;;;;39.27;24.63;;;10.60;81.90;;;;;;5011200;28;20194;-64
2022/11/15 10:10:44;;;;;;;43.07;25.50;;;10.60;82.00;;;;;;5021299;28;20337;-64
2022/11/15 10:13:23;;;;;;;44.57;25.30;;;10.70;81.70;;;;;;5009886;28;20210;-65
2022/11/15 10:15:51;;;;;;;41.30;24.27;;;10.80;81.50;;;;;;5011602;28;20183;-63
2022/11/15 10:18:19;;;;;;;42.30;25.77;;;10.70;81.60;;;;;;5026523;28;20262;-63
2022/11/15 10:20:49;;;;;;;41.33;25.30;;;10.80;81.40;;;;;;5008039;28;20216;-64
2022/11/15 10:23:18;;;;;;;37.53;25.27;;;10.80;80.70;;;;;;5006946;28;20281;-64
2022/11/15 10:25:44;;;;;;;41.93;27.27;;;10.80;81.00;;;;;;5014859;28;20188;-63
2022/11/15 10:28:21;;;;;;;46.80;27.13;;;10.80;80.60;;;;;;5026214;28;20230;-63
2022/11/15 10:30:49;;;;;;;58.00;33.23;;;11.00;81.20;;;;;;5034212;28;20219;-63
2022/11/15 10:33:34;;;;;;;59.53;34.10;;;11.00;80.90;;;;;;5031958;28;20216;-64
2022/11/15 10:36:09;;;;;;;64.57;34.97;;;10.90;81.50;;;;;;5031521;28;20199;-65
2022/11/15 10:38:50;;;;;;;64.30;33.73;;;10.90;81.50;;;;;;5014605;28;20191;-64
2022/11/15 10:41:18;;;;;;;65.20;36.03;;;11.00;81.60;;;;;;5030562;28;20198;-65
2022/11/15 10:43:45;;;;;;;70.47;35.87;;;11.00;81.70;;;;;;5013421;28;20237;-63
2022/11/15 10:46:22;;;;;;;66.23;33.57;;;11.10;81.10;;;;;;5030987;28;20631;-64
2022/11/15 10:48:47;;;;;;;68.00;35.77;;;11.00;81.40;;;;;;5027080;28;20184;-64
2022/11/15 10:51:29;;;;;;;65.87;35.50;;;10.90;81.70;;;;;;5015562;28;20246;-64
2022/11/15 10:53:57;;;;;;;71.47;37.97;;;10.80;82.00;;;;;;5031363;28;20192;-63
2022/11/15 10:56:25;;;;;;;65.67;34.57;;;10.70;82.80;;;;;;5030875;28;20622;-63
2022/11/15 10:58:55;;;;;;;81.07;39.40;;;10.80;82.70;;;;;;4994254;28;20196;-64
2022/11/15 11:01:26;;;;;;;67.17;35.03;;;10.80;82.50;;;;;;5013496;28;20184;-64
2022/11/15 11:04:09;;;;;;;69.43;36.73;;;10.70;82.50;;;;;;5007097;28;20222;-63
2022/11/15 11:06:55;;;;;;;68.67;36.17;;;10.60;82.40;;;;;;5029928;28;20188;-64
2022/11/15 11:09:27;;;;;;;78.33;39.60;;;10.70;82.70;;;;;;5029529;28;20184;-64
2022/11/15 11:11:53;;;;;;;85.27;41.33;;;10.50;82.80;;;;;;5022107;28;20192;-64
2022/11/15 11:14:39;;;;;;;79.47;40.13;;;10.40;83.30;;;;;;5012745;28;20249;-64
2022/11/15 11:17:23;;;;;;;66.97;36.03;;;10.30;84.20;;;;;;5036752;28;20298;-64
2022/11/15 11:19:58;;;;;;;69.23;35.87;;;10.40;84.00;;;;;;5017534;28;20235;-65
2022/11/15 11:22:41;;;;;;;77.63;38.50;;;10.50;83.70;;;;;;5027368;28;20214;-64
2022/11/15 11:25:10;;;;;;;71.77;37.03;;;10.50;83.70;;;;;;5025000;28;20655;-63
2022/11/15 11:28:04;;;;;;;72.80;37.70;;;10.60;83.40;;;;;;5013121;28;20666;-65
2022/11/15 11:30:58;;;;;;;71.87;35.87;;;10.60;83.60;;;;;;5003745;28;20238;-64
2022/11/15 11:33:33;;;;;;;73.93;36.50;;;10.60;83.30;;;;;;5012660;28;20214;-65
2022/11/15 11:36:08;;;;;;;67.20;33.27;;;10.60;83.20;;;;;;5037845;28;20237;-64
2022/11/15 11:38:56;;;;;;;57.03;33.10;;;10.70;83.40;;;;;;5030344;28;20187;-64
2022/11/15 11:41:44;;;;;;;72.00;36.83;;;10.80;83.50;;;;;;5030009;28;20192;-64
2022/11/15 11:44:33;;;;;;;62.93;31.97;;;10.90;83.20;;;;;;5008014;28;20188;-63
2022/11/15 11:47:05;;;;;;;55.13;30.23;;;11.00;82.90;;;;;;5006076;28;20181;-64
2022/11/15 11:50:03;;;;;;;63.20;33.67;;;11.00;81.90;;;;;;5029050;28;20187;-64
2022/11/15 11:52:57;;;;;;;62.37;33.67;;;11.10;81.80;;;;;;5001631;28;20200;-64
2022/11/15 11:55:28;;;;;;;60.83;32.70;;;11.20;81.80;;;;;;5013774;28;20258;-64
2022/11/15 11:58:47;;;;;;;59.80;31.57;;;11.10;80.60;;;;;;5013127;28;20267;-64
2022/11/15 12:01:37;;;;;;;63.60;33.43;;;11.00;81.10;;;;;;5002484;28;20207;-64
2022/11/15 12:04:20;;;;;;;52.00;28.00;;;11.00;81.00;;;;;;5002759;28;20218;-63
2022/11/15 12:07:01;;;;;;;54.00;28.40;;;11.10;81.10;;;;;;5028494;28;20179;-64
2022/11/15 12:09:29;;;;;;;53.50;29.33;;;11.10;80.80;;;;;;5008143;28;20191;-63
2022/11/15 12:12:02;;;;;;;56.27;30.13;;;11.10;80.70;;;;;;5011757;28;20279;-64
2022/11/15 12:14:34;;;;;;;51.30;29.07;;;11.10;80.40;;;;;;5011778;28;20784;-64
2022/11/15 12:17:00;;;;;;;58.50;31.73;;;11.00;80.70;;;;;;5028646;28;20266;-63
2022/11/15 12:19:26;;;;;;;53.97;31.77;;;11.10;81.10;;;;;;4995567;28;20336;-64
2022/11/15 12:21:59;;;;;;;50.90;29.10;;;11.00;81.10;;;;;;5028909;28;20230;-63
2022/11/15 12:24:36;;;;;;;46.53;28.23;;;11.00;81.00;;;;;;5028115;28;20175;-63
2022/11/15 12:27:17;;;;;;;41.83;26.37;;;11.00;80.50;;;;;;5032620;28;20555;-64
2022/11/15 12:29:51;;;;;;;42.20;25.50;;;11.00;80.90;;;;;;5014772;28;20180;-64
2022/11/15 12:32:30;;;;;;;52.00;28.33;;;11.00;81.00;;;;;;5013779;28;20191;-64
2022/11/15 12:34:57;;;;;;;42.87;26.33;;;11.00;81.20;;;;;;5010743;28;20640;-64
2022/11/15 12:37:38;;;;;;;41.80;24.80;;;11.00;81.30;;;;;;5013648;28;20198;-65
2022/11/15 12:40:20;;;;;;;42.97;25.00;;;11.00;81.20;;;;;;5013955;28;20270;-64
2022/11/15 12:43:06;;;;;;;40.83;23.73;;;11.10;81.20;;;;;;5040959;28;20238;-65
2022/11/15 12:45:40;;;;;;;38.27;22.57;;;11.10;81.10;;;;;;5013221;28;20179;-65
2022/11/15 12:48:15;;;;;;;45.23;25.67;;;11.10;81.00;;;;;;5029817;28;20188;-64
2022/11/15 12:50:50;;;;;;;40.53;23.93;;;11.10;80.70;;;;;;5018884;28;20215;-64
2022/11/15 12:53:25;;;;;;;37.00;22.37;;;11.10;80.80;;;;;;5027706;28;20215;-65
2022/11/15 12:56:09;;;;;;;36.10;21.93;;;11.10;80.90;;;;;;5029987;28;20187;-65
2022/11/15 12:58:57;;;;;;;41.23;24.63;;;11.10;80.90;;;;;;5025655;28;20198;-65
2022/11/15 13:01:32;;;;;;;37.53;22.40;;;11.10;80.70;;;;;;5021670;28;20188;-64
2022/11/15 13:04:19;;;;;;;43.43;26.10;;;11.10;80.70;;;;;;5007032;28;20203;-64
2022/11/15 13:07:01;;;;;;;43.63;24.90;;;11.00;80.70;;;;;;5013742;28;20309;-64